Time;durP1;ratioP1;P1;durP2;ratioP2;P2;SDS_P1;SDS_P2;PMS_P1;PMS_P2;Temp;Humidity;BMP_temperature;BMP_pressure;BME280_temperature;BME280_humidity;BME280_pressure;Samples;Min_cycle;Max_cycle;Signal;HPM_P1;HPM_P2
2022/09/06 00:01:16;;;;;;;3.70;2.13;;;23.70;74.60;;;;;;5051678;28;20033;-85
2022/09/06 00:03:42;;;;;;;2.05;1.67;;;23.70;74.90;;;;;;5035675;28;20059;-85
2022/09/06 00:06:13;;;;;;;2.22;1.70;;;23.60;75.10;;;;;;5035368;28;20033;-85
2022/09/06 00:08:39;;;;;;;2.63;1.60;;;23.50;75.30;;;;;;5035212;28;20025;-85
2022/09/06 00:11:06;;;;;;;3.83;1.70;;;23.60;75.30;;;;;;5034801;28;20037;-86
2022/09/06 00:13:32;;;;;;;4.57;1.65;;;23.60;75.20;;;;;;5035965;28;20021;-86
2022/09/06 00:16:06;;;;;;;2.85;1.70;;;23.60;75.20;;;;;;5019456;28;20044;-85
2022/09/06 00:18:32;;;;;;;3.35;1.77;;;23.60;75.10;;;;;;5041787;28;20036;-90
2022/09/06 00:20:58;;;;;;;3.85;1.77;;;23.70;75.10;;;;;;5059125;28;20044;-85
2022/09/06 00:23:23;;;;;;;3.63;1.70;;;23.70;75.00;;;;;;5059093;28;20029;-88
2022/09/06 00:25:49;;;;;;;2.25;1.75;;;23.70;75.00;;;;;;5058723;28;20101;-85
2022/09/06 00:28:15;;;;;;;2.92;1.75;;;23.70;74.90;;;;;;5058960;28;20020;-86
2022/09/06 00:30:41;;;;;;;2.75;1.70;;;23.80;75.00;;;;;;5057680;28;20036;-87
2022/09/06 00:33:07;;;;;;;2.50;1.90;;;23.80;75.00;;;;;;5044595;28;20021;-86
2022/09/06 00:35:35;;;;;;;2.35;1.77;;;23.80;75.00;;;;;;5035089;28;20029;-86
2022/09/06 00:38:01;;;;;;;2.97;1.50;;;23.80;75.10;;;;;;5020529;28;20041;-82
2022/09/06 00:40:29;;;;;;;2.88;1.60;;;23.80;75.00;;;;;;5020449;28;20036;-82
2022/09/06 00:42:56;;;;;;;3.95;1.90;;;23.80;75.00;;;;;;5036918;28;20103;-81
2022/09/06 00:45:24;;;;;;;2.03;1.60;;;23.70;75.20;;;;;;5017740;28;20061;-81
2022/09/06 00:47:50;;;;;;;2.00;1.45;;;23.80;75.40;;;;;;5017097;28;20084;-82
2022/09/06 00:50:17;;;;;;;1.92;1.30;;;23.80;75.40;;;;;;5017190;28;20103;-82
2022/09/06 00:52:45;;;;;;;2.50;1.63;;;23.80;75.60;;;;;;5001329;28;20112;-81
2022/09/06 00:55:11;;;;;;;2.03;1.48;;;23.80;75.80;;;;;;5000893;28;20033;-82
2022/09/06 00:57:38;;;;;;;3.83;1.70;;;23.80;76.10;;;;;;4998181;28;20121;-82
2022/09/06 01:00:06;;;;;;;2.80;1.50;;;23.80;76.60;;;;;;4991735;28;20129;-82
2022/09/06 01:02:31;;;;;;;3.47;1.63;;;23.80;77.10;;;;;;5017918;28;20045;-82
2022/09/06 01:05:01;;;;;;;1.70;1.50;;;23.80;77.80;;;;;;5017775;28;20438;-83
2022/09/06 01:07:46;;;;;;;4.38;1.67;;;23.80;78.50;;;;;;5018211;28;20048;-83
2022/09/06 01:10:18;;;;;;;2.40;1.80;;;23.80;78.90;;;;;;5016218;28;20026;-83
2022/09/06 01:12:57;;;;;;;2.50;1.73;;;23.80;79.80;;;;;;5016377;28;20025;-85
2022/09/06 01:15:47;;;;;;;2.72;1.80;;;23.70;80.50;;;;;;5016829;28;20487;-82
2022/09/06 01:18:19;;;;;;;2.60;1.90;;;23.70;81.30;;;;;;5016764;28;20112;-83
2022/09/06 01:21:32;;;;;;;3.15;2.00;;;23.60;81.70;;;;;;5017551;28;20053;-83
2022/09/06 01:24:36;;;;;;;4.82;2.47;;;23.50;82.10;;;;;;5025916;28;20108;-83
2022/09/06 01:27:32;;;;;;;3.88;1.90;;;23.40;82.80;;;;;;4971489;28;20042;-83
2022/09/06 01:30:07;;;;;;;3.70;2.10;;;23.30;83.10;;;;;;5020419;28;20539;-82
2022/09/06 01:32:59;;;;;;;2.85;2.00;;;23.30;83.50;;;;;;5020128;28;20021;-82
2022/09/06 01:35:30;;;;;;;3.38;2.42;;;23.30;83.80;;;;;;5020054;28;20021;-83
2022/09/06 01:37:57;;;;;;;3.80;2.28;;;23.20;83.80;;;;;;5020458;28;20033;-83
2022/09/06 01:40:23;;;;;;;3.35;2.22;;;23.20;84.10;;;;;;5004198;28;20075;-83
2022/09/06 01:50:11;;;;;;;2.80;2.20;;;23.00;85.00;;;;;;5058761;28;20097;-83
2022/09/06 01:52:50;;;;;;;3.83;2.50;;;22.90;85.40;;;;;;5055751;28;20052;-83
2022/09/06 01:55:42;;;;;;;3.58;2.28;;;22.90;85.60;;;;;;5039848;28;20024;-83
2022/09/06 01:58:32;;;;;;;4.25;2.63;;;22.90;85.90;;;;;;5040238;28;20021;-84
2022/09/06 02:01:12;;;;;;;2.72;2.20;;;22.90;86.10;;;;;;5056532;28;20032;-83
2022/09/06 02:03:54;;;;;;;4.05;2.80;;;22.90;86.30;;;;;;5058203;28;20060;-82
2022/09/06 02:06:28;;;;;;;4.20;2.83;;;22.90;86.70;;;;;;5040185;28;20078;-83
2022/09/06 02:09:06;;;;;;;5.63;2.85;;;22.90;87.00;;;;;;5039863;28;20033;-83
2022/09/06 02:11:41;;;;;;;5.97;2.95;;;22.90;87.10;;;;;;5040547;28;20029;-82
2022/09/06 02:14:16;;;;;;;2.63;2.40;;;22.80;87.10;;;;;;5040007;28;20036;-82
2022/09/06 02:16:48;;;;;;;4.13;2.72;;;22.80;87.10;;;;;;5040127;28;20075;-82
2022/09/06 02:19:52;;;;;;;4.22;2.63;;;22.80;87.20;;;;;;5057741;28;20029;-82
2022/09/06 02:22:22;;;;;;;5.18;3.08;;;22.80;87.50;;;;;;4976338;28;20094;-82
2022/09/06 02:24:54;;;;;;;3.80;3.03;;;22.80;87.70;;;;;;5027755;28;20064;-82
2022/09/06 02:27:19;;;;;;;4.65;3.10;;;22.70;87.80;;;;;;5057989;28;20005;-82
2022/09/06 02:29:45;;;;;;;4.22;2.72;;;22.70;88.00;;;;;;5046041;28;20009;-87
2022/09/06 02:32:20;;;;;;;5.13;3.33;;;22.60;88.10;;;;;;5046151;28;20013;-81
2022/09/06 02:34:48;;;;;;;3.28;2.70;;;22.60;88.40;;;;;;5062872;28;20013;-88
2022/09/06 02:37:15;;;;;;;3.80;2.75;;;22.40;88.70;;;;;;5062866;28;20021;-80
2022/09/06 02:39:41;;;;;;;3.88;2.97;;;22.30;89.10;;;;;;5049497;28;20127;-82
2022/09/06 02:42:09;;;;;;;3.42;2.90;;;22.20;89.20;;;;;;5025677;28;20048;-84
2022/09/06 02:44:35;;;;;;;3.85;3.38;;;22.10;89.50;;;;;;5048477;28;20040;-82
2022/09/06 02:47:02;;;;;;;3.83;2.85;;;21.90;90.00;;;;;;5066494;28;20057;-83
2022/09/06 02:49:28;;;;;;;5.18;3.33;;;21.70;90.20;;;;;;5048898;28;20465;-83
2022/09/06 02:51:54;;;;;;;3.88;3.00;;;21.60;90.40;;;;;;5048457;28;20020;-82
2022/09/06 02:54:20;;;;;;;2.80;2.58;;;21.50;90.60;;;;;;5048617;28;20064;-81
2022/09/06 02:56:46;;;;;;;3.50;2.83;;;21.50;90.60;;;;;;5030923;28;20048;-83
2022/09/06 02:59:11;;;;;;;4.88;3.10;;;21.50;90.80;;;;;;5031212;28;20021;-82
2022/09/06 03:01:37;;;;;;;3.88;2.92;;;21.50;90.50;;;;;;5048801;28;20025;-83
2022/09/06 03:04:03;;;;;;;3.83;3.00;;;21.60;90.50;;;;;;5026619;28;20033;-82
2022/09/06 03:06:29;;;;;;;2.88;2.65;;;21.60;90.60;;;;;;5042988;28;20033;-82
2022/09/06 03:08:54;;;;;;;3.85;2.97;;;21.60;90.60;;;;;;5031113;28;20032;-83
2022/09/06 03:11:20;;;;;;;2.88;2.55;;;21.60;90.60;;;;;;5031977;28;20025;-84
2022/09/06 03:13:46;;;;;;;3.13;2.55;;;21.70;90.60;;;;;;5032344;28;20025;-83
2022/09/06 03:16:12;;;;;;;3.28;2.97;;;21.70;90.50;;;;;;5031534;28;20044;-83
2022/09/06 03:18:38;;;;;;;2.92;2.63;;;21.70;90.50;;;;;;5048968;28;20055;-83
2022/09/06 03:21:07;;;;;;;3.80;2.75;;;21.80;90.60;;;;;;5065986;28;20021;-83
2022/09/06 03:23:33;;;;;;;7.10;2.90;;;21.80;90.60;;;;;;5063367;28;20071;-83
2022/09/06 03:25:59;;;;;;;3.95;2.58;;;21.90;90.50;;;;;;5026115;28;20436;-84
2022/09/06 03:28:25;;;;;;;3.50;2.92;;;21.90;90.60;;;;;;5023903;28;20460;-82
2022/09/06 03:30:51;;;;;;;3.67;2.80;;;21.90;90.70;;;;;;5037905;28;20384;-83
2022/09/06 03:33:18;;;;;;;3.47;3.17;;;21.90;90.70;;;;;;5038085;28;20059;-82
2022/09/06 03:35:49;;;;;;;3.30;3.00;;;22.00;90.70;;;;;;5038353;28;20056;-82
2022/09/06 03:38:16;;;;;;;4.15;3.03;;;22.00;90.70;;;;;;5038200;28;20113;-83
2022/09/06 03:40:46;;;;;;;3.50;2.90;;;22.00;90.70;;;;;;5037441;28;20120;-82
2022/09/06 03:43:14;;;;;;;3.70;3.10;;;22.00;90.80;;;;;;5037145;28;20017;-83
2022/09/06 03:45:45;;;;;;;3.33;3.03;;;22.10;90.80;;;;;;5037181;28;20049;-83
2022/09/06 03:48:11;;;;;;;3.78;2.88;;;22.10;90.80;;;;;;5037671;28;20041;-82
2022/09/06 03:50:37;;;;;;;4.05;2.75;;;22.10;90.90;;;;;;5038523;28;20381;-83
2022/09/06 03:53:05;;;;;;;4.45;3.42;;;22.10;90.90;;;;;;5037671;28;20377;-83
2022/09/06 03:55:30;;;;;;;5.97;3.08;;;22.10;90.90;;;;;;5021643;28;20044;-83
2022/09/06 03:57:56;;;;;;;4.38;3.50;;;22.10;90.90;;;;;;5021420;28;20021;-84
2022/09/06 04:00:22;;;;;;;4.20;3.80;;;22.10;91.00;;;;;;5020510;28;20035;-83
2022/09/06 04:02:48;;;;;;;4.75;3.45;;;22.10;90.90;;;;;;5021205;28;20116;-83
2022/09/06 04:05:15;;;;;;;5.30;3.40;;;22.10;90.90;;;;;;5037462;28;20053;-82
2022/09/06 04:07:42;;;;;;;3.92;3.15;;;22.00;90.90;;;;;;5037198;28;20025;-83
2022/09/06 04:10:08;;;;;;;6.15;3.60;;;22.00;90.90;;;;;;5037869;28;20082;-83
2022/09/06 04:12:34;;;;;;;3.85;3.30;;;22.00;90.90;;;;;;5021290;28;20028;-82
2022/09/06 04:14:59;;;;;;;4.18;3.25;;;22.00;90.90;;;;;;5022079;28;20096;-82
2022/09/06 04:17:26;;;;;;;4.28;3.55;;;22.00;90.90;;;;;;5020413;28;20071;-82
2022/09/06 04:19:52;;;;;;;8.43;3.72;;;22.00;90.80;;;;;;5020316;28;20029;-82
2022/09/06 04:22:17;;;;;;;4.63;3.95;;;22.00;90.80;;;;;;5054343;28;20413;-83
2022/09/06 04:24:43;;;;;;;4.30;3.90;;;22.00;90.90;;;;;;5036978;28;20040;-82
2022/09/06 04:27:09;;;;;;;3.80;3.35;;;22.00;90.90;;;;;;5022713;28;20029;-82
2022/09/06 04:29:38;;;;;;;4.50;3.60;;;22.00;90.90;;;;;;5052378;28;20033;-83
2022/09/06 04:32:03;;;;;;;3.95;3.33;;;22.00;91.00;;;;;;5077299;28;20055;-88
2022/09/06 04:34:29;;;;;;;4.10;3.17;;;22.00;91.00;;;;;;5059082;28;20024;-81
2022/09/06 04:36:57;;;;;;;3.70;3.08;;;22.00;90.90;;;;;;5056872;28;20048;-83
2022/09/06 04:39:23;;;;;;;3.33;2.90;;;22.00;90.90;;;;;;5041173;28;20009;-83
2022/09/06 04:41:49;;;;;;;3.15;2.85;;;22.00;91.00;;;;;;5060170;28;20021;-83
2022/09/06 04:44:15;;;;;;;3.95;2.78;;;22.00;91.10;;;;;;5059745;28;20088;-86
2022/09/06 04:46:41;;;;;;;3.20;2.90;;;22.00;91.10;;;;;;5029817;28;20045;-83
2022/09/06 04:49:07;;;;;;;3.95;2.90;;;22.00;91.10;;;;;;5037302;28;20029;-82
2022/09/06 04:51:33;;;;;;;5.22;2.97;;;22.00;91.10;;;;;;5020407;28;20028;-82
2022/09/06 04:53:58;;;;;;;3.38;3.08;;;22.00;91.10;;;;;;5001908;28;20021;-82
2022/09/06 04:56:25;;;;;;;3.20;2.90;;;22.00;91.20;;;;;;5016411;28;20021;-83
2022/09/06 04:58:54;;;;;;;3.22;2.90;;;22.00;91.10;;;;;;5018487;28;20037;-84
2022/09/06 05:01:20;;;;;;;3.40;3.10;;;22.00;91.10;;;;;;5016860;28;20041;-84
2022/09/06 05:03:46;;;;;;;3.30;2.88;;;22.00;91.20;;;;;;5016771;28;20021;-85
2022/09/06 05:06:21;;;;;;;5.28;3.33;;;22.00;91.20;;;;;;5016530;28;20022;-84
2022/09/06 05:08:47;;;;;;;3.65;3.22;;;22.00;91.20;;;;;;5016667;28;20079;-84
2022/09/06 05:11:15;;;;;;;3.80;3.40;;;21.90;91.20;;;;;;5016958;28;20400;-84
2022/09/06 05:13:41;;;;;;;4.00;3.63;;;21.90;91.30;;;;;;5017876;28;20033;-84
2022/09/06 05:16:12;;;;;;;4.28;3.38;;;21.80;91.30;;;;;;5016748;28;20116;-85
2022/09/06 05:18:46;;;;;;;3.97;3.58;;;21.80;91.30;;;;;;5016788;28;20025;-84
2022/09/06 05:21:12;;;;;;;3.72;3.35;;;21.80;91.30;;;;;;5017428;28;20032;-85
2022/09/06 05:23:40;;;;;;;3.85;3.45;;;21.80;91.40;;;;;;5016062;28;20017;-87
2022/09/06 05:26:06;;;;;;;4.05;3.22;;;21.80;91.50;;;;;;5017122;28;20033;-87
2022/09/06 05:28:32;;;;;;;4.72;3.17;;;21.80;91.50;;;;;;5000720;28;20033;-84
2022/09/06 05:31:09;;;;;;;3.60;3.30;;;21.80;91.50;;;;;;5017106;28;20025;-84
2022/09/06 05:33:36;;;;;;;3.28;2.97;;;21.70;91.50;;;;;;5019868;28;20025;-85
2022/09/06 05:36:13;;;;;;;4.70;3.33;;;21.70;91.50;;;;;;4999046;28;20041;-88
2022/09/06 05:38:41;;;;;;;3.88;3.47;;;21.70;91.60;;;;;;4997126;28;20022;-86
2022/09/06 05:41:17;;;;;;;3.72;3.08;;;21.70;91.60;;;;;;5014015;28;20033;-89
2022/09/06 05:43:43;;;;;;;4.38;3.33;;;21.70;91.70;;;;;;5017083;28;20022;-86
2022/09/06 05:46:12;;;;;;;6.43;4.45;;;21.70;91.70;;;;;;5025227;28;20048;-85
2022/09/06 05:48:39;;;;;;;5.70;5.10;;;21.70;91.70;;;;;;5036898;28;20014;-85
2022/09/06 05:51:13;;;;;;;5.22;4.65;;;21.70;91.70;;;;;;5036411;28;20388;-86
2022/09/06 05:53:42;;;;;;;5.18;4.30;;;21.80;91.70;;;;;;5019401;28;20025;-85
2022/09/06 05:56:11;;;;;;;5.00;3.50;;;21.80;91.70;;;;;;5035615;28;20075;-85
2022/09/06 05:58:39;;;;;;;6.18;3.67;;;21.80;91.70;;;;;;5035008;28;20033;-85
2022/09/06 06:01:09;;;;;;;3.97;3.58;;;21.80;91.70;;;;;;5020146;28;20061;-85
2022/09/06 06:03:35;;;;;;;6.93;4.13;;;21.80;91.70;;;;;;5052188;28;20079;-85
2022/09/06 06:06:03;;;;;;;4.93;3.72;;;21.80;91.70;;;;;;5036032;28;20295;-86
2022/09/06 06:08:32;;;;;;;4.05;3.35;;;21.80;91.70;;;;;;5056541;28;20496;-85
2022/09/06 06:10:59;;;;;;;5.68;4.03;;;21.70;91.80;;;;;;5040060;28;20160;-85
2022/09/06 06:13:33;;;;;;;4.30;3.90;;;21.70;91.80;;;;;;5040150;28;20025;-85
2022/09/06 06:16:04;;;;;;;4.32;3.92;;;21.70;91.90;;;;;;5040352;28;20025;-85
2022/09/06 06:18:29;;;;;;;4.18;3.78;;;21.70;92.00;;;;;;5040042;28;20032;-85
2022/09/06 06:21:08;;;;;;;4.45;4.03;;;21.70;92.00;;;;;;5040605;28;20029;-85
2022/09/06 06:23:37;;;;;;;5.13;4.72;;;21.70;92.00;;;;;;5040911;28;20039;-85
2022/09/06 06:26:06;;;;;;;5.55;4.28;;;21.70;91.90;;;;;;5043418;28;20009;-85
2022/09/06 06:28:32;;;;;;;6.05;4.82;;;21.70;92.00;;;;;;5047409;28;20025;-86
2022/09/06 06:31:10;;;;;;;5.13;4.63;;;21.70;91.90;;;;;;5044635;28;20051;-86
2022/09/06 06:33:39;;;;;;;5.50;4.90;;;21.70;92.00;;;;;;5044604;28;20021;-86
2022/09/06 06:36:17;;;;;;;5.40;4.90;;;21.70;92.00;;;;;;5063339;28;20009;-85
2022/09/06 06:38:53;;;;;;;6.40;5.22;;;21.70;92.00;;;;;;5063110;28;20064;-85
2022/09/06 06:41:22;;;;;;;6.10;5.47;;;21.70;92.10;;;;;;5060910;28;20025;-85
2022/09/06 06:43:53;;;;;;;5.95;5.22;;;21.70;92.10;;;;;;5058168;28;20040;-86
2022/09/06 06:46:20;;;;;;;6.88;5.50;;;21.70;92.10;;;;;;5047313;28;20053;-85
2022/09/06 06:48:46;;;;;;;7.13;5.53;;;21.70;92.10;;;;;;5039535;28;20107;-86
2022/09/06 06:51:15;;;;;;;5.90;5.30;;;21.80;92.10;;;;;;5039677;28;20051;-85
2022/09/06 06:53:49;;;;;;;5.35;4.82;;;21.80;92.00;;;;;;5039507;28;20105;-85
2022/09/06 06:56:19;;;;;;;4.90;4.40;;;21.80;92.00;;;;;;5038525;28;20033;-85
2022/09/06 06:58:47;;;;;;;7.68;5.15;;;21.90;92.00;;;;;;5039260;28;20017;-86
2022/09/06 07:01:19;;;;;;;5.70;4.88;;;21.90;92.00;;;;;;5038724;28;20025;-86
2022/09/06 07:03:46;;;;;;;5.45;4.25;;;22.00;92.00;;;;;;5039299;28;20025;-86
2022/09/06 07:06:12;;;;;;;5.72;4.55;;;22.00;92.00;;;;;;5038722;28;20025;-86
2022/09/06 07:08:39;;;;;;;5.85;5.30;;;22.00;92.00;;;;;;5038549;28;20374;-86
2022/09/06 07:11:06;;;;;;;5.13;4.63;;;22.00;92.00;;;;;;5038323;28;20043;-86
2022/09/06 07:13:35;;;;;;;7.30;4.75;;;22.10;92.20;;;;;;5038502;28;20029;-86
2022/09/06 07:16:07;;;;;;;4.78;4.38;;;22.10;91.90;;;;;;5038746;28;20036;-86
2022/09/06 07:18:41;;;;;;;5.00;4.25;;;22.20;91.90;;;;;;5054170;28;20041;-86
2022/09/06 07:21:16;;;;;;;5.28;4.32;;;22.20;91.80;;;;;;5022821;28;20096;-85
2022/09/06 07:23:42;;;;;;;6.47;4.40;;;22.20;91.80;;;;;;5038398;28;20056;-85
2022/09/06 07:26:25;;;;;;;5.22;4.40;;;22.20;91.70;;;;;;5038474;28;20131;-85
2022/09/06 07:28:58;;;;;;;4.90;4.40;;;22.20;91.70;;;;;;5038480;28;20029;-85
2022/09/06 07:31:28;;;;;;;4.57;4.10;;;22.30;91.60;;;;;;5038450;28;20029;-86
2022/09/06 07:36:48;;;;;;;4.80;4.20;;;22.40;91.60;;;;;;5041254;28;20264;-85
2022/09/06 07:39:31;;;;;;;5.38;4.20;;;22.50;91.60;;;;;;5021905;28;20041;-86
2022/09/06 07:42:10;;;;;;;;;;;;;;;;;;;;;
2022/09/06 07:44:45;;;;;;;5.10;3.65;;;22.50;91.60;;;;;;5039490;28;20040;-86
2022/09/06 07:47:16;;;;;;;6.57;5.97;;;22.60;91.60;;;;;;5036891;28;20099;-86
2022/09/06 07:49:46;;;;;;;6.20;5.55;;;22.70;91.50;;;;;;5037946;28;20449;-85
2022/09/06 07:52:12;;;;;;;5.97;4.47;;;22.70;91.30;;;;;;5037036;28;20520;-86
2022/09/06 07:54:48;;;;;;;5.75;4.28;;;22.70;91.20;;;;;;5036971;28;20116;-86
2022/09/06 07:57:23;;;;;;;6.57;3.90;;;22.80;91.00;;;;;;5037374;28;20481;-86
2022/09/06 07:59:59;;;;;;;4.15;3.60;;;22.80;90.90;;;;;;5037361;28;20025;-85
2022/09/06 08:03:13;;;;;;;;;;;;;;;;;;;;;
2022/09/06 08:05:39;;;;;;;5.30;2.92;;;22.90;90.70;;;;;;5054203;28;20040;-85
2022/09/06 08:08:21;;;;;;;4.38;3.50;;;22.90;90.60;;;;;;5036891;28;20117;-86
2022/09/06 08:10:50;;;;;;;3.67;3.30;;;23.00;90.40;;;;;;5038538;28;20064;-86
2022/09/06 08:13:19;;;;;;;4.88;3.08;;;23.10;90.30;;;;;;5036747;28;20112;-86
2022/09/06 08:15:44;;;;;;;6.38;3.50;;;23.10;90.20;;;;;;5036847;28;20025;-85
2022/09/06 08:18:10;;;;;;;5.82;3.50;;;23.20;90.10;;;;;;5019808;28;20040;-86
2022/09/06 08:20:36;;;;;;;4.93;3.90;;;23.30;90.00;;;;;;5037751;28;20111;-85
2022/09/06 08:23:09;;;;;;;6.20;3.85;;;23.30;90.00;;;;;;5037056;28;20446;-85
2022/09/06 08:25:37;;;;;;;4.45;3.20;;;23.40;90.10;;;;;;5021427;28;20036;-85
2022/09/06 08:28:06;;;;;;;4.22;3.83;;;23.40;90.10;;;;;;5037848;28;20358;-85
2022/09/06 08:30:38;;;;;;;5.80;4.10;;;23.50;90.00;;;;;;5037282;28;20106;-85
2022/09/06 08:33:06;;;;;;;4.25;3.70;;;23.60;89.80;;;;;;5038875;28;20133;-85
2022/09/06 08:35:35;;;;;;;3.70;3.40;;;23.60;90.00;;;;;;5053417;28;20036;-85
2022/09/06 08:38:04;;;;;;;6.30;3.38;;;23.70;89.20;;;;;;5052064;28;20041;-85
2022/09/06 08:40:39;;;;;;;4.20;3.33;;;23.70;89.20;;;;;;5040947;28;20029;-89
2022/09/06 08:43:18;;;;;;;3.42;2.90;;;23.80;89.10;;;;;;5060850;28;20029;-85
2022/09/06 08:45:51;;;;;;;3.38;2.63;;;23.80;88.60;;;;;;5054980;28;20057;-86
2022/09/06 08:48:18;;;;;;;6.63;3.22;;;23.90;88.40;;;;;;5033576;28;20088;-86
2022/09/06 08:51:11;;;;;;;4.80;2.67;;;23.90;88.10;;;;;;5022348;28;20030;-85
2022/09/06 08:53:46;;;;;;;3.20;2.72;;;24.00;87.70;;;;;;5019860;28;20111;-85
2022/09/06 08:56:25;;;;;;;3.45;2.80;;;24.00;87.50;;;;;;5001897;28;20037;-85
2022/09/06 08:58:59;;;;;;;3.40;2.40;;;24.00;87.40;;;;;;5016620;28;20060;-84
2022/09/06 09:01:35;;;;;;;6.55;3.15;;;24.10;87.20;;;;;;5015940;28;20029;-85
2022/09/06 09:04:07;;;;;;;4.50;3.08;;;24.10;86.40;;;;;;5016438;28;20022;-85
2022/09/06 09:06:33;;;;;;;5.60;2.88;;;24.20;86.20;;;;;;5017101;28;20535;-84
2022/09/06 09:09:13;;;;;;;2.88;2.45;;;24.20;85.70;;;;;;5017027;28;20473;-86
2022/09/06 09:11:55;;;;;;;;;;;;;;;;;;;;;
2022/09/06 09:14:42;;;;;;;3.38;2.72;;;24.40;85.30;;;;;;5035289;28;20037;-85
2022/09/06 09:17:19;;;;;;;2.83;2.20;;;24.40;84.80;;;;;;5017421;28;20049;-85
2022/09/06 09:20:05;;;;;;;3.60;2.25;;;24.50;84.60;;;;;;5000419;28;20485;-85
2022/09/06 09:22:33;;;;;;;2.67;2.45;;;24.50;84.50;;;;;;5033885;28;20029;-87
2022/09/06 09:25:02;;;;;;;2.10;1.90;;;24.60;84.50;;;;;;5016244;28;20034;-85
2022/09/06 09:38:51;;;;;;;;;;;;;;;;;;;;;
2022/09/06 09:44:56;;;;;;;2.97;2.28;;;25.10;82.80;;;;;;4957187;28;20026;-85
2022/09/06 09:54:45;;;;;;;4.63;1.67;;;25.20;81.90;;;;;;4957294;29;20031;-85
2022/09/06 09:57:17;;;;;;;1.85;1.60;;;25.30;81.70;;;;;;4900419;29;20047;-85
2022/09/06 10:03:48;;;;;;;2.25;1.80;;;25.40;81.10;;;;;;5033908;28;20054;-85
2022/09/06 10:06:14;;;;;;;4.40;3.00;;;25.50;80.90;;;;;;5035691;28;20029;-86
2022/09/06 10:08:43;;;;;;;7.68;3.67;;;25.60;80.80;;;;;;5018940;28;20030;-86
2022/09/06 10:11:13;;;;;;;3.75;2.50;;;25.60;80.30;;;;;;5018958;28;20024;-85
2022/09/06 10:13:41;;;;;;;2.60;1.98;;;25.60;79.70;;;;;;5018724;28;20026;-86
2022/09/06 10:16:08;;;;;;;2.85;1.90;;;25.70;79.80;;;;;;5018690;28;20128;-85
2022/09/06 10:18:44;;;;;;;3.35;2.00;;;25.70;79.70;;;;;;5018943;28;20464;-85
2022/09/06 10:21:18;;;;;;;2.60;1.83;;;25.70;79.60;;;;;;5019862;28;20033;-85
2022/09/06 10:24:29;;;;;;;2.78;1.42;;;25.80;79.30;;;;;;5036994;28;20026;-86
2022/09/06 10:27:25;;;;;;;2.58;1.52;;;25.90;78.80;;;;;;4990043;28;20045;-85
2022/09/06 10:30:15;;;;;;;2.42;1.77;;;25.90;78.60;;;;;;5026566;28;20038;-85
2022/09/06 10:42:37;;;;;;;2.65;1.50;;;26.10;77.50;;;;;;4942232;29;20039;-85
2022/09/06 10:45:19;;;;;;;2.47;1.42;;;26.20;77.60;;;;;;4940486;29;20122;-85
2022/09/06 10:54:54;;;;;;;1.73;1.27;;;26.40;76.60;;;;;;4995958;28;20062;-85
2022/09/06 10:57:26;;;;;;;1.83;1.23;;;26.40;76.60;;;;;;4982263;28;20058;-84
2022/09/06 10:59:58;;;;;;;1.88;1.65;;;26.50;76.50;;;;;;5037698;28;20040;-87
2022/09/06 11:02:49;;;;;;;1.83;1.60;;;26.50;76.00;;;;;;5062214;28;20029;-85
2022/09/06 11:12:47;;;;;;;3.65;1.67;;;26.70;75.90;;;;;;4980693;28;20042;-85
2022/09/06 11:16:08;;;;;;;4.53;1.55;;;26.80;75.70;;;;;;4980041;28;20030;-85
2022/09/06 11:29:46;;;;;;;4.53;1.50;;;26.90;74.80;;;;;;4928114;28;20047;-84
2022/09/06 11:36:00;;;;;;;2.10;1.40;;;27.10;74.40;;;;;;4872350;29;20134;-84
2022/09/06 11:39:23;;;;;;;;;;;;;;;;;;;;;
2022/09/06 11:46:13;;;;;;;1.42;1.00;;;27.30;73.90;;;;;;4919185;29;20075;-83
2022/09/06 11:49:26;;;;;;;1.90;1.20;;;27.30;73.80;;;;;;4807533;29;20074;-83
2022/09/06 11:51:58;;;;;;;3.35;1.58;;;27.40;73.20;;;;;;4809669;29;20030;-83
2022/09/06 11:54:44;;;;;;;2.00;1.20;;;27.50;72.60;;;;;;4825967;29;20049;-82
2022/09/06 12:04:04;;;;;;;;;;;;;;;;;;;;;
2022/09/06 12:07:20;;;;;;;;;;;27.70;72.80;;;;;;4897793;29;20046;-83
2022/09/06 12:10:33;;;;;;;1.98;1.02;;;27.80;72.70;;;;;;4897236;29;19907;-83
2022/09/06 12:13:42;;;;;;;1.33;1.23;;;27.80;73.00;;;;;;4882192;29;20138;-84
2022/09/06 12:17:10;;;;;;;;;;;;;;;;;;;;;
2022/09/06 12:20:15;;;;;;;;;;;;;;;;;;;;;
2022/09/06 12:22:54;;;;;;;2.35;1.27;;;27.90;72.20;;;;;;4974956;28;20164;-83
2022/09/06 12:25:55;;;;;;;2.95;1.52;;;27.90;72.50;;;;;;4973443;28;20121;-83
2022/09/06 12:28:30;;;;;;;3.15;1.52;;;28.00;72.00;;;;;;4973804;28;20035;-83
2022/09/06 12:31:00;;;;;;;2.38;1.10;;;28.00;72.20;;;;;;4957409;28;20158;-83
2022/09/06 12:34:08;;;;;;;;;;;;;;;;;;;;;
2022/09/06 12:37:24;;;;;;;2.55;1.30;;;28.20;72.20;;;;;;5005521;28;20028;-82
2022/09/06 12:40:16;;;;;;;;;;;;;;;;;;;;;
2022/09/06 12:43:02;;;;;;;2.20;1.40;;;28.20;71.70;;;;;;4960691;28;20038;-83
2022/09/06 12:45:29;;;;;;;3.00;1.50;;;28.20;71.40;;;;;;4976627;28;20050;-83
2022/09/06 12:48:40;;;;;;;4.05;1.70;;;28.30;71.30;;;;;;4978326;28;20041;-87
2022/09/06 12:51:19;;;;;;;2.03;1.42;;;28.30;70.80;;;;;;5032755;28;20048;-84
2022/09/06 12:54:00;;;;;;;1.95;1.50;;;28.40;71.20;;;;;;5038460;28;20052;-83
2022/09/06 13:03:38;;;;;;;;;;;;;;;;;;;;;
2022/09/06 13:06:07;;;;;;;3.97;1.52;;;28.50;70.80;;;;;;4985451;28;20145;-82
2022/09/06 13:09:06;;;;;;;1.70;1.60;;;28.40;70.60;;;;;;4993389;28;20039;-84
2022/09/06 13:12:16;;;;;;;3.05;1.95;;;28.40;70.20;;;;;;5012108;28;20039;-84
2022/09/06 13:15:42;;;;;;;2.78;1.80;;;28.40;70.40;;;;;;4893862;29;20053;-83
2022/09/06 13:18:34;;;;;;;4.25;2.10;;;28.40;70.60;;;;;;4890604;29;20025;-84
2022/09/06 13:21:01;;;;;;;1.90;1.70;;;28.40;70.00;;;;;;5035104;28;20033;-84
2022/09/06 13:24:02;;;;;;;3.20;1.67;;;28.40;70.10;;;;;;5044410;28;20029;-84
2022/09/06 13:27:03;;;;;;;2.17;1.67;;;28.40;70.00;;;;;;5056656;28;20029;-84
2022/09/06 13:29:30;;;;;;;4.75;2.22;;;28.40;70.20;;;;;;5037286;28;20037;-83
2022/09/06 13:32:03;;;;;;;4.10;3.00;;;28.50;70.30;;;;;;5023174;28;20022;-83
2022/09/06 13:34:33;;;;;;;3.22;2.75;;;28.50;70.20;;;;;;5040403;28;20013;-84
2022/09/06 13:37:08;;;;;;;3.47;1.92;;;28.60;70.20;;;;;;5035135;28;20044;-83
2022/09/06 13:39:37;;;;;;;3.53;2.03;;;28.60;69.90;;;;;;5057963;28;20039;-83
2022/09/06 13:42:23;;;;;;;2.88;1.90;;;28.60;70.00;;;;;;5040038;28;20037;-84
2022/09/06 13:44:49;;;;;;;3.17;1.55;;;28.60;69.80;;;;;;5040590;28;20083;-82
2022/09/06 13:47:22;;;;;;;3.60;1.60;;;28.60;69.70;;;;;;5041048;28;20136;-82
2022/09/06 13:49:53;;;;;;;1.75;1.40;;;28.70;69.30;;;;;;5025646;28;20041;-83
2022/09/06 13:52:19;;;;;;;3.95;1.63;;;28.70;68.90;;;;;;5040992;28;20036;-83
2022/09/06 13:54:47;;;;;;;2.67;1.50;;;28.70;68.30;;;;;;5041169;28;20025;-83
2022/09/06 13:57:15;;;;;;;2.95;1.40;;;28.70;68.20;;;;;;5059051;28;20381;-83
2022/09/06 13:59:46;;;;;;;1.58;1.42;;;28.70;67.60;;;;;;5025246;28;20472;-83
2022/09/06 14:02:23;;;;;;;2.85;1.40;;;28.80;66.60;;;;;;5024596;28;20036;-84
2022/09/06 14:04:49;;;;;;;2.05;1.40;;;28.80;66.30;;;;;;5024558;28;20072;-82
2022/09/06 14:07:39;;;;;;;1.33;1.20;;;28.70;66.00;;;;;;5039417;28;20040;-84
2022/09/06 14:10:34;;;;;;;1.58;1.17;;;28.70;66.00;;;;;;5022838;28;20579;-85
2022/09/06 14:13:47;;;;;;;1.85;1.40;;;28.70;66.10;;;;;;5056908;28;20048;-84
2022/09/06 14:16:12;;;;;;;1.42;1.20;;;28.80;66.30;;;;;;5057393;28;20029;-87
2022/09/06 14:18:39;;;;;;;3.08;1.63;;;28.80;66.50;;;;;;5039656;28;20028;-89
2022/09/06 14:21:08;;;;;;;2.10;1.48;;;28.80;66.30;;;;;;5057640;28;20024;-90
2022/09/06 14:23:33;;;;;;;2.42;1.65;;;28.80;65.90;;;;;;5057148;28;20021;-88
2022/09/06 14:26:15;;;;;;;3.17;1.50;;;28.80;65.60;;;;;;5039306;28;20036;-88
2022/09/06 14:28:44;;;;;;;2.35;1.52;;;28.70;65.80;;;;;;5048840;28;20028;-89
2022/09/06 14:31:20;;;;;;;3.72;1.38;;;28.70;66.10;;;;;;5056440;28;20524;-87
2022/09/06 14:33:46;;;;;;;4.63;1.15;;;28.70;66.20;;;;;;5039044;28;20037;-88
2022/09/06 14:36:15;;;;;;;2.28;1.55;;;28.70;66.10;;;;;;5038455;28;20028;-88
2022/09/06 14:38:51;;;;;;;1.70;1.40;;;28.80;66.10;;;;;;5038740;28;20029;-89
2022/09/06 14:41:20;;;;;;;2.33;1.25;;;28.80;66.30;;;;;;5038801;28;20368;-89
2022/09/06 14:43:51;;;;;;;3.28;1.33;;;28.80;65.80;;;;;;5038825;28;20048;-88
2022/09/06 14:46:18;;;;;;;1.92;1.13;;;28.80;65.80;;;;;;5038367;28;20045;-88
2022/09/06 14:48:47;;;;;;;2.95;1.88;;;28.80;65.80;;;;;;5056675;28;20520;-89
2022/09/06 14:51:22;;;;;;;2.75;1.77;;;28.80;65.50;;;;;;5038312;28;20554;-88
2022/09/06 14:53:54;;;;;;;3.05;1.85;;;28.80;65.50;;;;;;5056634;28;20017;-88
2022/09/06 14:56:20;;;;;;;2.58;1.50;;;28.80;65.00;;;;;;5056376;28;20535;-89
2022/09/06 14:58:46;;;;;;;1.58;1.23;;;28.90;65.00;;;;;;5021589;28;20053;-89
2022/09/06 15:01:20;;;;;;;2.25;1.27;;;28.80;64.90;;;;;;5055851;28;20447;-88
2022/09/06 15:03:53;;;;;;;2.40;1.30;;;28.80;64.60;;;;;;5038132;28;20475;-89
2022/09/06 15:06:21;;;;;;;1.77;1.02;;;28.80;63.90;;;;;;5056303;28;20029;-88
2022/09/06 15:08:50;;;;;;;2.45;0.98;;;28.80;63.40;;;;;;5037917;28;20021;-88